sensor_id;sensor_type;location;lat;lon;timestamp;P1;durP1;ratioP1;P2;durP2;ratioP2
23898;SDS011;20544;50.018;20.010;2022-11-20T00:01:36;102.50;;;64.95;;
23898;SDS011;20544;50.018;20.010;2022-11-20T00:04:52;101.15;;;65.25;;
23898;SDS011;20544;50.018;20.010;2022-11-20T00:08:09;100.50;;;63.73;;
23898;SDS011;20544;50.018;20.010;2022-11-20T00:11:27;98.10;;;65.13;;
23898;SDS011;20544;50.018;20.010;2022-11-20T00:14:45;106.90;;;64.93;;
23898;SDS011;20544;50.018;20.010;2022-11-20T00:18:01;101.33;;;63.88;;
23898;SDS011;20544;50.018;20.010;2022-11-20T00:21:19;100.08;;;61.60;;
23898;SDS011;20544;50.018;20.010;2022-11-20T00:24:38;101.03;;;62.53;;
23898;SDS011;20544;50.018;20.010;2022-11-20T00:27:54;98.88;;;61.58;;
23898;SDS011;20544;50.018;20.010;2022-11-20T00:31:13;99.50;;;61.57;;
23898;SDS011;20544;50.018;20.010;2022-11-20T00:34:30;108.40;;;64.10;;
23898;SDS011;20544;50.018;20.010;2022-11-20T00:37:47;99.68;;;61.48;;
23898;SDS011;20544;50.018;20.010;2022-11-20T00:41:04;99.20;;;63.43;;
23898;SDS011;20544;50.018;20.010;2022-11-20T00:44:23;103.60;;;63.83;;
23898;SDS011;20544;50.018;20.010;2022-11-20T00:47:39;100.30;;;62.65;;
23898;SDS011;20544;50.018;20.010;2022-11-20T00:50:56;103.50;;;62.95;;
23898;SDS011;20544;50.018;20.010;2022-11-20T00:54:13;96.60;;;60.65;;
23898;SDS011;20544;50.018;20.010;2022-11-20T00:57:30;100.75;;;62.30;;
23898;SDS011;20544;50.018;20.010;2022-11-20T01:00:47;99.90;;;61.25;;
23898;SDS011;20544;50.018;20.010;2022-11-20T01:04:04;101.15;;;61.85;;
23898;SDS011;20544;50.018;20.010;2022-11-20T01:07:21;99.90;;;61.85;;
23898;SDS011;20544;50.018;20.010;2022-11-20T01:10:37;94.23;;;60.88;;
23898;SDS011;20544;50.018;20.010;2022-11-20T01:13:54;97.08;;;61.93;;
23898;SDS011;20544;50.018;20.010;2022-11-20T01:17:12;93.70;;;59.08;;
23898;SDS011;20544;50.018;20.010;2022-11-20T01:20:29;94.93;;;59.75;;
23898;SDS011;20544;50.018;20.010;2022-11-20T01:23:48;97.67;;;60.10;;
23898;SDS011;20544;50.018;20.010;2022-11-20T01:27:06;96.23;;;59.68;;
23898;SDS011;20544;50.018;20.010;2022-11-20T01:30:23;99.83;;;61.38;;
23898;SDS011;20544;50.018;20.010;2022-11-20T01:33:40;95.20;;;59.83;;
23898;SDS011;20544;50.018;20.010;2022-11-20T01:36:57;92.00;;;59.40;;
23898;SDS011;20544;50.018;20.010;2022-11-20T01:40:14;88.05;;;57.40;;
23898;SDS011;20544;50.018;20.010;2022-11-20T01:43:31;94.13;;;59.20;;
23898;SDS011;20544;50.018;20.010;2022-11-20T01:46:51;91.78;;;58.68;;
23898;SDS011;20544;50.018;20.010;2022-11-20T01:50:14;90.88;;;57.03;;
23898;SDS011;20544;50.018;20.010;2022-11-20T01:53:38;87.78;;;56.35;;
23898;SDS011;20544;50.018;20.010;2022-11-20T01:56:56;93.23;;;57.48;;
23898;SDS011;20544;50.018;20.010;2022-11-20T02:00:16;88.28;;;57.18;;
23898;SDS011;20544;50.018;20.010;2022-11-20T02:06:50;90.70;;;57.23;;
23898;SDS011;20544;50.018;20.010;2022-11-20T02:10:09;90.10;;;57.13;;
23898;SDS011;20544;50.018;20.010;2022-11-20T02:13:26;87.60;;;56.38;;
23898;SDS011;20544;50.018;20.010;2022-11-20T02:16:54;89.43;;;57.30;;
23898;SDS011;20544;50.018;20.010;2022-11-20T02:20:11;88.10;;;55.13;;
23898;SDS011;20544;50.018;20.010;2022-11-20T02:23:30;93.03;;;57.63;;
23898;SDS011;20544;50.018;20.010;2022-11-20T02:26:51;88.00;;;55.95;;
23898;SDS011;20544;50.018;20.010;2022-11-20T02:30:11;88.42;;;56.60;;
23898;SDS011;20544;50.018;20.010;2022-11-20T02:33:29;91.55;;;56.70;;
23898;SDS011;20544;50.018;20.010;2022-11-20T02:36:45;89.90;;;56.88;;
23898;SDS011;20544;50.018;20.010;2022-11-20T02:40:22;87.95;;;56.65;;
23898;SDS011;20544;50.018;20.010;2022-11-20T02:43:39;87.90;;;54.48;;
23898;SDS011;20544;50.018;20.010;2022-11-20T02:46:58;86.30;;;56.15;;
23898;SDS011;20544;50.018;20.010;2022-11-20T02:50:15;91.30;;;57.20;;
23898;SDS011;20544;50.018;20.010;2022-11-20T02:53:33;90.13;;;57.80;;
23898;SDS011;20544;50.018;20.010;2022-11-20T02:56:49;88.15;;;56.95;;
23898;SDS011;20544;50.018;20.010;2022-11-20T03:00:07;90.15;;;58.85;;
23898;SDS011;20544;50.018;20.010;2022-11-20T03:03:27;86.38;;;55.73;;
23898;SDS011;20544;50.018;20.010;2022-11-20T03:06:44;91.00;;;57.73;;
23898;SDS011;20544;50.018;20.010;2022-11-20T03:10:02;79.73;;;52.85;;
23898;SDS011;20544;50.018;20.010;2022-11-20T03:13:20;85.80;;;55.80;;
23898;SDS011;20544;50.018;20.010;2022-11-20T03:16:38;89.60;;;56.28;;
23898;SDS011;20544;50.018;20.010;2022-11-20T03:19:55;87.08;;;54.75;;
23898;SDS011;20544;50.018;20.010;2022-11-20T03:23:12;85.30;;;55.53;;
23898;SDS011;20544;50.018;20.010;2022-11-20T03:26:29;89.25;;;55.73;;
23898;SDS011;20544;50.018;20.010;2022-11-20T03:29:46;84.75;;;55.05;;
23898;SDS011;20544;50.018;20.010;2022-11-20T03:33:03;88.40;;;55.10;;
23898;SDS011;20544;50.018;20.010;2022-11-20T03:36:20;86.13;;;55.68;;
23898;SDS011;20544;50.018;20.010;2022-11-20T03:39:38;87.45;;;55.43;;
23898;SDS011;20544;50.018;20.010;2022-11-20T03:42:54;88.15;;;54.18;;
23898;SDS011;20544;50.018;20.010;2022-11-20T03:46:12;85.53;;;54.73;;
23898;SDS011;20544;50.018;20.010;2022-11-20T03:49:33;88.05;;;54.30;;
23898;SDS011;20544;50.018;20.010;2022-11-20T03:52:50;90.10;;;54.80;;
23898;SDS011;20544;50.018;20.010;2022-11-20T03:56:07;94.38;;;56.83;;
23898;SDS011;20544;50.018;20.010;2022-11-20T03:59:26;90.05;;;55.58;;
23898;SDS011;20544;50.018;20.010;2022-11-20T04:02:42;93.15;;;56.65;;
23898;SDS011;20544;50.018;20.010;2022-11-20T04:06:02;91.93;;;56.25;;
23898;SDS011;20544;50.018;20.010;2022-11-20T04:09:22;87.28;;;54.13;;
23898;SDS011;20544;50.018;20.010;2022-11-20T04:12:40;90.83;;;55.58;;
23898;SDS011;20544;50.018;20.010;2022-11-20T04:15:58;87.48;;;56.13;;
23898;SDS011;20544;50.018;20.010;2022-11-20T04:19:16;87.35;;;54.53;;
23898;SDS011;20544;50.018;20.010;2022-11-20T04:22:33;93.18;;;55.90;;
23898;SDS011;20544;50.018;20.010;2022-11-20T04:25:49;90.63;;;57.18;;
23898;SDS011;20544;50.018;20.010;2022-11-20T04:29:06;89.08;;;55.73;;
23898;SDS011;20544;50.018;20.010;2022-11-20T04:32:26;91.35;;;57.10;;
23898;SDS011;20544;50.018;20.010;2022-11-20T04:35:44;96.35;;;57.53;;
23898;SDS011;20544;50.018;20.010;2022-11-20T04:39:04;98.00;;;59.13;;
23898;SDS011;20544;50.018;20.010;2022-11-20T04:42:25;96.73;;;59.25;;
23898;SDS011;20544;50.018;20.010;2022-11-20T04:45:41;102.50;;;60.00;;
23898;SDS011;20544;50.018;20.010;2022-11-20T04:49:03;102.90;;;60.48;;
23898;SDS011;20544;50.018;20.010;2022-11-20T04:52:20;108.78;;;64.65;;
23898;SDS011;20544;50.018;20.010;2022-11-20T04:55:37;109.95;;;64.83;;
23898;SDS011;20544;50.018;20.010;2022-11-20T04:58:54;102.98;;;63.33;;
23898;SDS011;20544;50.018;20.010;2022-11-20T05:02:13;95.45;;;60.65;;
23898;SDS011;20544;50.018;20.010;2022-11-20T05:05:30;104.90;;;62.78;;
23898;SDS011;20544;50.018;20.010;2022-11-20T05:08:47;96.88;;;62.10;;
23898;SDS011;20544;50.018;20.010;2022-11-20T05:12:04;102.18;;;62.93;;
23898;SDS011;20544;50.018;20.010;2022-11-20T05:15:22;100.65;;;60.68;;
23898;SDS011;20544;50.018;20.010;2022-11-20T05:18:39;104.68;;;62.33;;
23898;SDS011;20544;50.018;20.010;2022-11-20T05:21:56;102.20;;;62.70;;
23898;SDS011;20544;50.018;20.010;2022-11-20T05:25:13;112.00;;;64.60;;
23898;SDS011;20544;50.018;20.010;2022-11-20T05:28:29;103.80;;;62.03;;
23898;SDS011;20544;50.018;20.010;2022-11-20T05:31:47;104.90;;;62.53;;
23898;SDS011;20544;50.018;20.010;2022-11-20T05:35:04;101.70;;;61.88;;
23898;SDS011;20544;50.018;20.010;2022-11-20T05:38:24;99.13;;;62.13;;
23898;SDS011;20544;50.018;20.010;2022-11-20T05:41:40;98.08;;;61.93;;
23898;SDS011;20544;50.018;20.010;2022-11-20T05:44:59;106.20;;;64.10;;
23898;SDS011;20544;50.018;20.010;2022-11-20T05:48:18;107.33;;;63.43;;
23898;SDS011;20544;50.018;20.010;2022-11-20T05:51:34;119.40;;;65.83;;
23898;SDS011;20544;50.018;20.010;2022-11-20T05:54:51;127.08;;;72.05;;
23898;SDS011;20544;50.018;20.010;2022-11-20T05:58:07;126.98;;;70.55;;
23898;SDS011;20544;50.018;20.010;2022-11-20T06:01:24;124.30;;;66.90;;
23898;SDS011;20544;50.018;20.010;2022-11-20T06:04:42;119.60;;;64.65;;
23898;SDS011;20544;50.018;20.010;2022-11-20T06:07:58;134.98;;;62.75;;
23898;SDS011;20544;50.018;20.010;2022-11-20T06:11:16;131.38;;;63.35;;
23898;SDS011;20544;50.018;20.010;2022-11-20T06:14:34;135.53;;;67.40;;
23898;SDS011;20544;50.018;20.010;2022-11-20T06:17:54;153.50;;;69.65;;
23898;SDS011;20544;50.018;20.010;2022-11-20T06:21:11;131.75;;;68.43;;
23898;SDS011;20544;50.018;20.010;2022-11-20T06:24:32;156.55;;;70.40;;
23898;SDS011;20544;50.018;20.010;2022-11-20T06:27:48;152.20;;;69.95;;
23898;SDS011;20544;50.018;20.010;2022-11-20T06:31:06;209.15;;;72.78;;
23898;SDS011;20544;50.018;20.010;2022-11-20T06:34:25;240.93;;;74.50;;
23898;SDS011;20544;50.018;20.010;2022-11-20T06:37:41;232.03;;;72.38;;
23898;SDS011;20544;50.018;20.010;2022-11-20T06:40:58;212.80;;;70.58;;
23898;SDS011;20544;50.018;20.010;2022-11-20T06:44:15;212.70;;;71.35;;
23898;SDS011;20544;50.018;20.010;2022-11-20T06:47:31;156.03;;;71.63;;
23898;SDS011;20544;50.018;20.010;2022-11-20T06:50:48;159.25;;;71.93;;
23898;SDS011;20544;50.018;20.010;2022-11-20T06:54:05;140.78;;;69.83;;
23898;SDS011;20544;50.018;20.010;2022-11-20T06:57:21;153.83;;;72.23;;
23898;SDS011;20544;50.018;20.010;2022-11-20T07:00:38;141.05;;;73.43;;
23898;SDS011;20544;50.018;20.010;2022-11-20T07:03:57;196.45;;;72.80;;
23898;SDS011;20544;50.018;20.010;2022-11-20T07:07:14;189.68;;;77.28;;
23898;SDS011;20544;50.018;20.010;2022-11-20T07:10:31;170.18;;;71.60;;
23898;SDS011;20544;50.018;20.010;2022-11-20T07:13:48;132.60;;;70.40;;
23898;SDS011;20544;50.018;20.010;2022-11-20T07:17:05;185.05;;;70.38;;
23898;SDS011;20544;50.018;20.010;2022-11-20T07:20:22;138.65;;;69.88;;
23898;SDS011;20544;50.018;20.010;2022-11-20T07:23:39;141.50;;;66.95;;
23898;SDS011;20544;50.018;20.010;2022-11-20T07:26:56;163.45;;;70.35;;
23898;SDS011;20544;50.018;20.010;2022-11-20T07:30:14;163.07;;;70.73;;
23898;SDS011;20544;50.018;20.010;2022-11-20T07:33:35;158.90;;;70.70;;
23898;SDS011;20544;50.018;20.010;2022-11-20T07:36:55;179.18;;;72.10;;
23898;SDS011;20544;50.018;20.010;2022-11-20T07:40:13;135.10;;;71.33;;
23898;SDS011;20544;50.018;20.010;2022-11-20T07:43:32;151.25;;;72.60;;
23898;SDS011;20544;50.018;20.010;2022-11-20T07:46:53;141.30;;;70.73;;
23898;SDS011;20544;50.018;20.010;2022-11-20T07:50:12;135.13;;;66.83;;
23898;SDS011;20544;50.018;20.010;2022-11-20T07:53:33;137.18;;;70.18;;
23898;SDS011;20544;50.018;20.010;2022-11-20T07:56:55;126.25;;;67.08;;
23898;SDS011;20544;50.018;20.010;2022-11-20T08:00:18;128.88;;;66.93;;
23898;SDS011;20544;50.018;20.010;2022-11-20T08:03:35;133.68;;;69.93;;
23898;SDS011;20544;50.018;20.010;2022-11-20T08:06:53;118.95;;;66.05;;
23898;SDS011;20544;50.018;20.010;2022-11-20T08:10:16;124.98;;;68.00;;
23898;SDS011;20544;50.018;20.010;2022-11-20T08:13:36;129.38;;;69.58;;
23898;SDS011;20544;50.018;20.010;2022-11-20T08:17:10;119.40;;;65.33;;
23898;SDS011;20544;50.018;20.010;2022-11-20T08:20:37;120.50;;;66.03;;
23898;SDS011;20544;50.018;20.010;2022-11-20T08:24:17;116.58;;;63.85;;
23898;SDS011;20544;50.018;20.010;2022-11-20T08:27:34;108.93;;;64.35;;
23898;SDS011;20544;50.018;20.010;2022-11-20T08:30:50;104.28;;;61.73;;
23898;SDS011;20544;50.018;20.010;2022-11-20T08:34:13;109.55;;;60.90;;
23898;SDS011;20544;50.018;20.010;2022-11-20T08:37:45;114.83;;;61.30;;
23898;SDS011;20544;50.018;20.010;2022-11-20T08:41:08;114.85;;;66.38;;
23898;SDS011;20544;50.018;20.010;2022-11-20T08:44:39;117.13;;;65.68;;
23898;SDS011;20544;50.018;20.010;2022-11-20T08:47:59;118.73;;;65.88;;
23898;SDS011;20544;50.018;20.010;2022-11-20T08:51:20;116.53;;;65.18;;
23898;SDS011;20544;50.018;20.010;2022-11-20T08:54:37;115.58;;;64.53;;
23898;SDS011;20544;50.018;20.010;2022-11-20T08:57:54;125.63;;;66.50;;
23898;SDS011;20544;50.018;20.010;2022-11-20T09:01:12;121.73;;;67.25;;
23898;SDS011;20544;50.018;20.010;2022-11-20T09:04:34;119.93;;;69.38;;
23898;SDS011;20544;50.018;20.010;2022-11-20T09:07:51;123.60;;;69.33;;
23898;SDS011;20544;50.018;20.010;2022-11-20T09:11:12;123.40;;;68.58;;
23898;SDS011;20544;50.018;20.010;2022-11-20T09:14:29;119.03;;;65.93;;
23898;SDS011;20544;50.018;20.010;2022-11-20T09:17:51;125.80;;;67.78;;
23898;SDS011;20544;50.018;20.010;2022-11-20T09:21:11;120.85;;;65.80;;
23898;SDS011;20544;50.018;20.010;2022-11-20T09:24:34;124.55;;;67.88;;
23898;SDS011;20544;50.018;20.010;2022-11-20T09:27:55;125.65;;;68.20;;
23898;SDS011;20544;50.018;20.010;2022-11-20T09:31:17;117.18;;;66.50;;
23898;SDS011;20544;50.018;20.010;2022-11-20T09:34:35;116.43;;;66.98;;
23898;SDS011;20544;50.018;20.010;2022-11-20T09:37:52;121.00;;;69.00;;
23898;SDS011;20544;50.018;20.010;2022-11-20T09:41:14;119.83;;;64.83;;
23898;SDS011;20544;50.018;20.010;2022-11-20T09:44:54;120.53;;;66.80;;
23898;SDS011;20544;50.018;20.010;2022-11-20T09:48:34;118.05;;;68.88;;
23898;SDS011;20544;50.018;20.010;2022-11-20T09:52:05;118.35;;;65.90;;
23898;SDS011;20544;50.018;20.010;2022-11-20T09:55:28;114.63;;;65.53;;
23898;SDS011;20544;50.018;20.010;2022-11-20T09:58:46;118.53;;;66.48;;
23898;SDS011;20544;50.018;20.010;2022-11-20T10:02:11;115.63;;;65.73;;
23898;SDS011;20544;50.018;20.010;2022-11-20T10:05:37;112.13;;;66.68;;
23898;SDS011;20544;50.018;20.010;2022-11-20T10:08:59;113.40;;;65.68;;
23898;SDS011;20544;50.018;20.010;2022-11-20T10:12:31;115.85;;;67.15;;
23898;SDS011;20544;50.018;20.010;2022-11-20T10:15:55;125.13;;;71.18;;
23898;SDS011;20544;50.018;20.010;2022-11-20T10:19:23;127.40;;;72.05;;
23898;SDS011;20544;50.018;20.010;2022-11-20T10:23:08;126.28;;;70.58;;
23898;SDS011;20544;50.018;20.010;2022-11-20T10:26:41;122.40;;;69.43;;
23898;SDS011;20544;50.018;20.010;2022-11-20T10:30:03;119.33;;;68.15;;
23898;SDS011;20544;50.018;20.010;2022-11-20T10:33:25;119.68;;;67.08;;
23898;SDS011;20544;50.018;20.010;2022-11-20T10:36:49;117.85;;;66.58;;
23898;SDS011;20544;50.018;20.010;2022-11-20T10:40:18;122.18;;;71.13;;
23898;SDS011;20544;50.018;20.010;2022-11-20T10:43:39;117.00;;;67.80;;
23898;SDS011;20544;50.018;20.010;2022-11-20T10:46:55;120.38;;;69.20;;
23898;SDS011;20544;50.018;20.010;2022-11-20T10:50:14;114.58;;;68.38;;
23898;SDS011;20544;50.018;20.010;2022-11-20T10:53:45;115.15;;;67.93;;
23898;SDS011;20544;50.018;20.010;2022-11-20T10:57:17;117.85;;;67.48;;
23898;SDS011;20544;50.018;20.010;2022-11-20T11:00:39;120.45;;;70.95;;
23898;SDS011;20544;50.018;20.010;2022-11-20T11:03:56;120.45;;;69.63;;
23898;SDS011;20544;50.018;20.010;2022-11-20T11:07:15;227.95;;;129.20;;
23898;SDS011;20544;50.018;20.010;2022-11-20T11:10:36;131.38;;;77.13;;
23898;SDS011;20544;50.018;20.010;2022-11-20T11:14:05;127.45;;;72.28;;
23898;SDS011;20544;50.018;20.010;2022-11-20T11:17:27;120.88;;;71.78;;
23898;SDS011;20544;50.018;20.010;2022-11-20T11:20:50;118.88;;;70.15;;
23898;SDS011;20544;50.018;20.010;2022-11-20T11:24:15;127.90;;;72.20;;
23898;SDS011;20544;50.018;20.010;2022-11-20T11:27:46;119.35;;;69.90;;
23898;SDS011;20544;50.018;20.010;2022-11-20T11:31:06;118.35;;;70.25;;
23898;SDS011;20544;50.018;20.010;2022-11-20T11:34:25;128.03;;;73.73;;
23898;SDS011;20544;50.018;20.010;2022-11-20T11:37:43;119.58;;;70.25;;
23898;SDS011;20544;50.018;20.010;2022-11-20T11:41:06;125.05;;;71.48;;
23898;SDS011;20544;50.018;20.010;2022-11-20T11:44:27;118.48;;;71.40;;
23898;SDS011;20544;50.018;20.010;2022-11-20T11:48:03;114.55;;;69.20;;
23898;SDS011;20544;50.018;20.010;2022-11-20T11:51:23;118.33;;;71.08;;
23898;SDS011;20544;50.018;20.010;2022-11-20T11:54:48;116.18;;;69.18;;
23898;SDS011;20544;50.018;20.010;2022-11-20T11:58:14;119.63;;;71.75;;
23898;SDS011;20544;50.018;20.010;2022-11-20T12:01:43;298.90;;;168.53;;
23898;SDS011;20544;50.018;20.010;2022-11-20T12:05:16;185.07;;;104.50;;
23898;SDS011;20544;50.018;20.010;2022-11-20T12:08:39;136.25;;;78.80;;
23898;SDS011;20544;50.018;20.010;2022-11-20T12:12:04;125.18;;;73.38;;
23898;SDS011;20544;50.018;20.010;2022-11-20T12:15:30;120.18;;;71.08;;
23898;SDS011;20544;50.018;20.010;2022-11-20T12:18:49;116.88;;;70.23;;
23898;SDS011;20544;50.018;20.010;2022-11-20T12:22:07;119.63;;;69.73;;
23898;SDS011;20544;50.018;20.010;2022-11-20T12:25:29;116.85;;;69.30;;
23898;SDS011;20544;50.018;20.010;2022-11-20T12:32:28;126.85;;;73.45;;
23898;SDS011;20544;50.018;20.010;2022-11-20T12:35:56;123.88;;;72.55;;
23898;SDS011;20544;50.018;20.010;2022-11-20T12:39:24;121.93;;;71.25;;
23898;SDS011;20544;50.018;20.010;2022-11-20T12:43:01;116.40;;;67.18;;
23898;SDS011;20544;50.018;20.010;2022-11-20T12:46:40;120.90;;;71.80;;
23898;SDS011;20544;50.018;20.010;2022-11-20T12:50:00;125.10;;;72.50;;
23898;SDS011;20544;50.018;20.010;2022-11-20T12:53:25;128.98;;;74.68;;
23898;SDS011;20544;50.018;20.010;2022-11-20T12:56:46;132.58;;;75.25;;
23898;SDS011;20544;50.018;20.010;2022-11-20T13:00:10;125.58;;;72.38;;
23898;SDS011;20544;50.018;20.010;2022-11-20T13:03:39;131.58;;;74.63;;
23898;SDS011;20544;50.018;20.010;2022-11-20T13:07:00;123.68;;;72.48;;
23898;SDS011;20544;50.018;20.010;2022-11-20T13:10:26;122.43;;;73.25;;
23898;SDS011;20544;50.018;20.010;2022-11-20T13:13:52;124.60;;;74.33;;
23898;SDS011;20544;50.018;20.010;2022-11-20T13:17:24;135.20;;;75.35;;
23898;SDS011;20544;50.018;20.010;2022-11-20T13:20:45;130.08;;;74.78;;
23898;SDS011;20544;50.018;20.010;2022-11-20T13:24:05;124.83;;;72.60;;
23898;SDS011;20544;50.018;20.010;2022-11-20T13:27:34;129.43;;;74.03;;
23898;SDS011;20544;50.018;20.010;2022-11-20T13:30:59;131.28;;;75.63;;
23898;SDS011;20544;50.018;20.010;2022-11-20T13:34:23;125.80;;;73.70;;
23898;SDS011;20544;50.018;20.010;2022-11-20T13:37:39;127.20;;;73.68;;
23898;SDS011;20544;50.018;20.010;2022-11-20T13:40:56;125.28;;;74.75;;
23898;SDS011;20544;50.018;20.010;2022-11-20T13:44:23;120.85;;;72.43;;
23898;SDS011;20544;50.018;20.010;2022-11-20T13:47:46;122.13;;;72.80;;
23898;SDS011;20544;50.018;20.010;2022-11-20T13:51:06;132.45;;;75.78;;
23898;SDS011;20544;50.018;20.010;2022-11-20T13:58:22;126.10;;;75.60;;
23898;SDS011;20544;50.018;20.010;2022-11-20T14:01:46;126.05;;;76.33;;
23898;SDS011;20544;50.018;20.010;2022-11-20T14:05:03;128.85;;;76.48;;
23898;SDS011;20544;50.018;20.010;2022-11-20T14:08:27;135.73;;;78.13;;
23898;SDS011;20544;50.018;20.010;2022-11-20T14:11:49;127.35;;;73.60;;
23898;SDS011;20544;50.018;20.010;2022-11-20T14:19:20;121.33;;;73.38;;
23898;SDS011;20544;50.018;20.010;2022-11-20T14:22:47;129.25;;;77.73;;
23898;SDS011;20544;50.018;20.010;2022-11-20T14:26:05;129.00;;;75.68;;
23898;SDS011;20544;50.018;20.010;2022-11-20T14:29:27;129.78;;;77.30;;
23898;SDS011;20544;50.018;20.010;2022-11-20T14:32:45;138.88;;;81.10;;
23898;SDS011;20544;50.018;20.010;2022-11-20T14:36:04;135.73;;;80.08;;
23898;SDS011;20544;50.018;20.010;2022-11-20T14:39:26;131.33;;;76.50;;
23898;SDS011;20544;50.018;20.010;2022-11-20T14:42:46;129.13;;;76.18;;
23898;SDS011;20544;50.018;20.010;2022-11-20T14:46:03;129.30;;;76.85;;
23898;SDS011;20544;50.018;20.010;2022-11-20T14:49:22;126.43;;;76.65;;
23898;SDS011;20544;50.018;20.010;2022-11-20T14:52:49;129.15;;;78.30;;
23898;SDS011;20544;50.018;20.010;2022-11-20T14:56:09;127.70;;;77.35;;
23898;SDS011;20544;50.018;20.010;2022-11-20T14:59:25;139.95;;;85.22;;
23898;SDS011;20544;50.018;20.010;2022-11-20T15:06:00;144.32;;;84.63;;
23898;SDS011;20544;50.018;20.010;2022-11-20T15:09:19;137.38;;;82.13;;
23898;SDS011;20544;50.018;20.010;2022-11-20T15:12:46;131.73;;;79.95;;
23898;SDS011;20544;50.018;20.010;2022-11-20T15:16:04;131.18;;;77.03;;
23898;SDS011;20544;50.018;20.010;2022-11-20T15:19:25;131.08;;;80.58;;
23898;SDS011;20544;50.018;20.010;2022-11-20T15:22:42;131.25;;;80.33;;
23898;SDS011;20544;50.018;20.010;2022-11-20T15:25:59;136.88;;;83.65;;
23898;SDS011;20544;50.018;20.010;2022-11-20T15:29:19;131.85;;;82.63;;
23898;SDS011;20544;50.018;20.010;2022-11-20T15:32:37;139.55;;;83.60;;
23898;SDS011;20544;50.018;20.010;2022-11-20T15:35:54;137.60;;;83.55;;
23898;SDS011;20544;50.018;20.010;2022-11-20T15:39:12;141.08;;;84.63;;
23898;SDS011;20544;50.018;20.010;2022-11-20T15:42:29;137.45;;;81.03;;
23898;SDS011;20544;50.018;20.010;2022-11-20T15:45:49;145.50;;;85.92;;
23898;SDS011;20544;50.018;20.010;2022-11-20T15:49:10;146.58;;;87.80;;
23898;SDS011;20544;50.018;20.010;2022-11-20T15:52:30;143.33;;;84.95;;
23898;SDS011;20544;50.018;20.010;2022-11-20T15:55:47;143.33;;;85.68;;
23898;SDS011;20544;50.018;20.010;2022-11-20T15:59:03;147.65;;;86.05;;
23898;SDS011;20544;50.018;20.010;2022-11-20T16:02:21;140.70;;;84.67;;
23898;SDS011;20544;50.018;20.010;2022-11-20T16:05:38;135.40;;;81.33;;
23898;SDS011;20544;50.018;20.010;2022-11-20T16:08:54;134.98;;;82.20;;
23898;SDS011;20544;50.018;20.010;2022-11-20T16:12:12;137.23;;;83.78;;
23898;SDS011;20544;50.018;20.010;2022-11-20T16:15:38;147.60;;;87.58;;
23898;SDS011;20544;50.018;20.010;2022-11-20T16:19:00;139.00;;;83.05;;
23898;SDS011;20544;50.018;20.010;2022-11-20T16:22:25;133.68;;;82.80;;
23898;SDS011;20544;50.018;20.010;2022-11-20T16:25:42;136.33;;;84.18;;
23898;SDS011;20544;50.018;20.010;2022-11-20T16:29:00;135.78;;;81.80;;
23898;SDS011;20544;50.018;20.010;2022-11-20T16:32:24;140.40;;;85.45;;
23898;SDS011;20544;50.018;20.010;2022-11-20T16:35:41;132.85;;;81.20;;
23898;SDS011;20544;50.018;20.010;2022-11-20T16:38:58;136.28;;;82.75;;
23898;SDS011;20544;50.018;20.010;2022-11-20T16:42:16;137.13;;;83.58;;
23898;SDS011;20544;50.018;20.010;2022-11-20T16:45:33;136.78;;;82.85;;
23898;SDS011;20544;50.018;20.010;2022-11-20T16:48:54;144.40;;;86.30;;
23898;SDS011;20544;50.018;20.010;2022-11-20T16:52:12;139.65;;;84.43;;
23898;SDS011;20544;50.018;20.010;2022-11-20T16:55:29;147.75;;;86.50;;
23898;SDS011;20544;50.018;20.010;2022-11-20T16:58:47;138.55;;;86.10;;
23898;SDS011;20544;50.018;20.010;2022-11-20T17:02:05;136.03;;;83.10;;
23898;SDS011;20544;50.018;20.010;2022-11-20T17:05:24;138.08;;;84.55;;
23898;SDS011;20544;50.018;20.010;2022-11-20T17:08:42;142.37;;;85.73;;
23898;SDS011;20544;50.018;20.010;2022-11-20T17:11:59;142.85;;;84.98;;
23898;SDS011;20544;50.018;20.010;2022-11-20T17:15:16;132.10;;;82.00;;
23898;SDS011;20544;50.018;20.010;2022-11-20T17:18:35;135.73;;;81.23;;
23898;SDS011;20544;50.018;20.010;2022-11-20T17:21:51;132.93;;;82.23;;
23898;SDS011;20544;50.018;20.010;2022-11-20T17:25:08;137.83;;;81.65;;
23898;SDS011;20544;50.018;20.010;2022-11-20T17:28:25;139.38;;;84.63;;
23898;SDS011;20544;50.018;20.010;2022-11-20T17:31:43;141.78;;;85.00;;
23898;SDS011;20544;50.018;20.010;2022-11-20T17:35:00;144.23;;;86.93;;
23898;SDS011;20544;50.018;20.010;2022-11-20T17:38:17;142.65;;;83.75;;
23898;SDS011;20544;50.018;20.010;2022-11-20T17:41:37;142.55;;;86.08;;
23898;SDS011;20544;50.018;20.010;2022-11-20T17:44:56;138.60;;;85.17;;
23898;SDS011;20544;50.018;20.010;2022-11-20T17:48:12;141.00;;;84.80;;
23898;SDS011;20544;50.018;20.010;2022-11-20T17:51:29;143.50;;;85.58;;
23898;SDS011;20544;50.018;20.010;2022-11-20T17:54:48;138.53;;;85.83;;
23898;SDS011;20544;50.018;20.010;2022-11-20T17:58:05;137.00;;;86.73;;
23898;SDS011;20544;50.018;20.010;2022-11-20T18:01:21;143.70;;;88.48;;
23898;SDS011;20544;50.018;20.010;2022-11-20T18:04:37;137.88;;;87.72;;
23898;SDS011;20544;50.018;20.010;2022-11-20T18:07:54;138.65;;;87.10;;
23898;SDS011;20544;50.018;20.010;2022-11-20T18:11:11;143.60;;;87.28;;
23898;SDS011;20544;50.018;20.010;2022-11-20T18:14:37;152.93;;;93.40;;
23898;SDS011;20544;50.018;20.010;2022-11-20T18:18:06;150.18;;;93.10;;
23898;SDS011;20544;50.018;20.010;2022-11-20T18:21:22;153.15;;;94.60;;
23898;SDS011;20544;50.018;20.010;2022-11-20T18:24:40;145.63;;;93.10;;
23898;SDS011;20544;50.018;20.010;2022-11-20T18:27:58;145.10;;;90.83;;
23898;SDS011;20544;50.018;20.010;2022-11-20T18:31:14;149.05;;;90.25;;
23898;SDS011;20544;50.018;20.010;2022-11-20T18:34:31;145.20;;;88.53;;
23898;SDS011;20544;50.018;20.010;2022-11-20T18:37:48;140.20;;;85.73;;
23898;SDS011;20544;50.018;20.010;2022-11-20T18:41:04;242.63;;;146.88;;
23898;SDS011;20544;50.018;20.010;2022-11-20T18:44:36;149.33;;;91.15;;
23898;SDS011;20544;50.018;20.010;2022-11-20T18:48:02;144.50;;;86.43;;
23898;SDS011;20544;50.018;20.010;2022-11-20T18:51:18;143.20;;;86.13;;
23898;SDS011;20544;50.018;20.010;2022-11-20T18:54:35;134.73;;;84.25;;
23898;SDS011;20544;50.018;20.010;2022-11-20T18:57:51;138.18;;;83.85;;
23898;SDS011;20544;50.018;20.010;2022-11-20T19:01:08;136.98;;;82.85;;
23898;SDS011;20544;50.018;20.010;2022-11-20T19:04:25;135.53;;;84.40;;
23898;SDS011;20544;50.018;20.010;2022-11-20T19:07:42;138.18;;;84.90;;
23898;SDS011;20544;50.018;20.010;2022-11-20T19:11:05;138.93;;;83.80;;
23898;SDS011;20544;50.018;20.010;2022-11-20T19:14:23;134.35;;;83.95;;
23898;SDS011;20544;50.018;20.010;2022-11-20T19:17:39;133.75;;;82.65;;